Time;durP1;ratioP1;P1;durP2;ratioP2;P2;SDS_P1;SDS_P2;PMS_P1;PMS_P2;Temp;Humidity;BMP_temperature;BMP_pressure;BME280_temperature;BME280_humidity;BME280_pressure;Samples;Min_cycle;Max_cycle;Signal;HPM_P1;HPM_P2
2021/12/26 00:00:15;;;;;;;43.15;15.27;;;;;;;-10.70;100.00;98596.97;4291280;33;20036;-74
2021/12/26 00:03:02;;;;;;;40.80;15.57;;;;;;;-10.75;100.00;98589.53;4306124;33;20082;-73
2021/12/26 00:05:29;;;;;;;55.08;17.92;;;;;;;-11.18;100.00;98517.63;4306330;33;20432;-74
2021/12/26 00:07:56;;;;;;;63.53;17.50;;;;;;;-10.85;100.00;98591.22;4292013;33;20493;-74
2021/12/26 00:10:26;;;;;;;48.28;18.10;;;;;;;-11.15;100.00;98531.19;4303863;33;20037;-74
2021/12/26 00:12:53;;;;;;;60.15;17.85;;;;;;;-10.94;100.00;98585.00;4303102;33;20045;-74
2021/12/26 00:15:19;;;;;;;49.47;17.00;;;;;;;-11.02;100.00;98577.81;4305382;33;20065;-73
2021/12/26 00:17:46;;;;;;;72.15;19.77;;;;;;;-11.09;100.00;98576.63;4310435;33;20056;-74
2021/12/26 00:20:14;;;;;;;48.72;17.12;;;;;;;-11.10;100.00;98575.00;4284606;33;20057;-74
2021/12/26 00:22:42;;;;;;;52.00;18.30;;;;;;;-11.06;100.00;98585.97;4295163;33;20038;-74
2021/12/26 00:25:10;;;;;;;58.72;18.80;;;;;;;-11.09;100.00;98586.22;4298212;33;20742;-73
2021/12/26 00:27:37;;;;;;;63.97;18.83;;;;;;;-11.25;100.00;98576.22;4302778;33;20078;-73
2021/12/26 00:30:10;;;;;;;57.03;19.00;;;;;;;-11.22;100.00;98581.19;4300170;33;20036;-73
2021/12/26 00:32:36;;;;;;;73.15;22.48;;;;;;;-11.34;100.00;98572.59;4298620;33;20042;-75
2021/12/26 00:35:04;;;;;;;43.10;17.95;;;;;;;-11.43;100.00;98589.72;4312499;33;20057;-75
2021/12/26 00:37:30;;;;;;;72.25;19.65;;;;;;;-11.32;100.00;98592.31;4299334;33;20366;-72
2021/12/26 00:39:57;;;;;;;56.05;18.73;;;;;;;-11.39;100.00;98580.75;4310503;33;20174;-73
2021/12/26 00:42:24;;;;;;;57.40;22.95;;;;;;;-11.63;100.00;98556.69;4311229;33;20078;-74
2021/12/26 00:44:51;;;;;;;58.35;19.25;;;;;;;-11.44;100.00;98588.06;4311366;33;20060;-74
2021/12/26 00:47:17;;;;;;;42.58;15.45;;;;;;;-11.35;100.00;98605.53;4299111;33;20082;-73
2021/12/26 00:49:44;;;;;;;43.85;13.15;;;;;;;-11.42;100.00;98603.53;4312723;33;20049;-75
2021/12/26 00:52:11;;;;;;;67.18;20.30;;;;;;;-11.42;100.00;98606.97;4311595;33;20049;-74
2021/12/26 00:54:37;;;;;;;61.45;21.27;;;;;;;-11.36;100.00;98616.91;4298896;33;20397;-76
2021/12/26 00:57:05;;;;;;;48.75;18.08;;;;;;;-11.45;100.00;98620.22;4299183;33;20057;-74
2021/12/26 00:59:32;;;;;;;43.42;18.00;;;;;;;-11.51;100.00;98624.09;4312933;33;20074;-74
2021/12/26 01:01:59;;;;;;;62.22;21.55;;;;;;;-11.92;100.00;98567.59;4309852;33;20075;-73
2021/12/26 01:04:26;;;;;;;62.80;20.17;;;;;;;-11.88;100.00;98582.00;4301492;33;20448;-77
2021/12/26 01:06:53;;;;;;;27.75;11.98;;;;;;;-11.79;100.00;98609.84;4301626;33;20053;-74
2021/12/26 01:09:24;;;;;;;68.07;20.35;;;;;;;-12.13;100.00;98555.34;4305351;33;20359;-74
2021/12/26 01:11:56;;;;;;;37.05;18.12;;;;;;;-11.79;100.00;98598.63;4303913;33;20086;-75
2021/12/26 01:14:29;;;;;;;35.08;14.82;;;;;;;-11.82;100.00;98594.50;4300948;33;20349;-74
2021/12/26 01:17:06;;;;;;;50.83;20.42;;;;;;;-12.09;100.00;98543.78;4304029;33;20065;-73
2021/12/26 01:19:43;;;;;;;37.05;16.73;;;;;;;-11.77;100.00;98589.78;4307257;33;20393;-73
2021/12/26 01:22:10;;;;;;;71.15;21.90;;;;;;;-12.09;100.00;98541.19;4304191;33;20500;-74
2021/12/26 01:24:39;;;;;;;66.18;21.92;;;;;;;-12.02;100.00;98551.09;4303900;33;20030;-75
2021/12/26 01:27:06;;;;;;;51.92;17.75;;;;;;;-11.90;100.00;98534.53;4303625;33;20391;-74
2021/12/26 01:29:36;;;;;;;57.47;19.23;;;;;;;-12.03;100.00;98545.06;4300019;33;20040;-75
2021/12/26 01:32:05;;;;;;;40.33;16.25;;;;;;;-11.62;100.00;98584.34;4295031;33;20024;-75
2021/12/26 01:34:33;;;;;;;57.65;15.75;;;;;;;-11.83;100.00;98538.31;4297295;33;20393;-74
2021/12/26 01:37:02;;;;;;;31.67;12.25;;;;;;;-11.47;100.00;98583.13;4294894;33;20041;-75
2021/12/26 01:39:34;;;;;;;39.33;14.35;;;;;;;-11.58;100.00;98554.56;4296676;33;20454;-74
2021/12/26 01:42:03;;;;;;;42.47;13.55;;;;;;;-11.33;100.00;98580.28;4300349;33;20070;-74
2021/12/26 01:44:33;;;;;;;55.65;17.55;;;;;;;-11.20;100.00;98574.06;4311813;33;20366;-74
2021/12/26 01:47:03;;;;;;;37.88;12.68;;;;;;;-11.05;100.00;98580.66;4312108;33;20036;-73
2021/12/26 01:49:32;;;;;;;42.50;12.18;;;;;;;-10.97;100.00;98590.44;4298421;33;20378;-73
2021/12/26 01:52:03;;;;;;;15.90;6.93;;;;;;;-11.15;100.00;98533.78;4311430;33;20024;-74
2021/12/26 01:57:07;;;;;;;41.20;13.68;;;;;;;-10.81;100.00;98562.22;4311599;33;20078;-75
2021/12/26 01:59:34;;;;;;;24.08;11.15;;;;;;;-10.98;100.00;98532.38;4310250;33;20403;-74
2021/12/26 02:02:01;;;;;;;26.60;10.38;;;;;;;-11.16;100.00;98495.72;4312100;33;20040;-74
2021/12/26 02:04:30;;;;;;;34.30;13.32;;;;;;;-10.79;100.00;98567.31;4312105;33;20037;-74
2021/12/26 02:06:59;;;;;;;20.33;6.57;;;;;;;-10.70;100.00;98576.97;4310174;33;20444;-74
2021/12/26 02:09:26;;;;;;;24.15;9.70;;;;;;;-10.90;100.00;98564.75;4308728;33;20040;-75
2021/12/26 02:11:54;;;;;;;32.63;11.32;;;;;;;-10.94;100.00;98563.34;4309008;33;20060;-74
2021/12/26 02:14:20;;;;;;;38.63;11.30;;;;;;;-10.97;100.00;98580.84;4309971;33;20029;-74
2021/12/26 02:16:48;;;;;;;39.15;15.45;;;;;;;-11.29;100.00;98544.47;4310587;33;20062;-74
2021/12/26 02:19:15;;;;;;;35.83;11.38;;;;;;;-11.10;100.00;98575.00;4311035;33;20070;-75
2021/12/26 02:25:23;;;;;;;37.42;15.48;;;;;;;-11.18;100.00;98590.41;4311742;33;20401;-73
2021/12/26 02:29:54;;;;;;;44.00;13.98;;;;;;;-11.52;100.00;98543.69;4311281;33;20037;-74
2021/12/26 02:32:21;;;;;;;20.65;10.15;;;;;;;-11.25;100.00;98571.03;4311293;33;20040;-73
2021/12/26 02:34:48;;;;;;;35.10;14.60;;;;;;;-11.54;100.00;98537.78;4307705;33;20037;-73
2021/12/26 02:37:15;;;;;;;32.90;13.30;;;;;;;-11.24;100.00;98583.09;4311053;33;20947;-73
2021/12/26 02:39:41;;;;;;;41.08;14.63;;;;;;;-11.51;100.00;98529.75;4311450;33;20067;-73
2021/12/26 02:42:08;;;;;;;49.97;13.93;;;;;;;-11.49;100.00;98533.03;4309262;33;20086;-73
2021/12/26 02:44:35;;;;;;;47.72;13.93;;;;;;;-11.20;100.00;98584.47;4310360;33;20049;-74
2021/12/26 02:47:02;;;;;;;39.20;14.23;;;;;;;-11.22;100.00;98578.59;4309988;33;20167;-74
2021/12/26 02:49:29;;;;;;;30.80;12.90;;;;;;;-11.25;100.00;98592.63;4310634;33;20032;-73
2021/12/26 02:51:56;;;;;;;34.20;13.40;;;;;;;-11.46;100.00;98558.78;4310930;33;20070;-72
2021/12/26 02:54:23;;;;;;;41.13;13.18;;;;;;;-11.65;100.00;98527.41;4298340;33;20036;-75
2021/12/26 02:56:50;;;;;;;51.95;15.38;;;;;;;-11.37;100.00;98584.06;4307359;33;20162;-73
2021/12/26 02:59:18;;;;;;;57.45;17.58;;;;;;;-11.59;100.00;98555.53;4310168;33;20382;-72
2021/12/26 03:01:44;;;;;;;42.88;14.60;;;;;;;-11.80;100.00;98530.28;4296450;33;20036;-71
2021/12/26 03:04:12;;;;;;;34.38;14.18;;;;;;;-11.39;100.00;98604.16;4311315;33;20066;-72
2021/12/26 03:06:48;;;;;;;47.80;15.40;;;;;;;-11.72;100.00;98569.47;4308940;33;20041;-75
2021/12/26 03:09:15;;;;;;;35.78;12.80;;;;;;;-11.48;100.00;98612.66;4310903;33;20350;-73
2021/12/26 03:11:44;;;;;;;41.08;13.25;;;;;;;-11.56;100.00;98615.03;4310596;33;20351;-72
2021/12/26 03:14:11;;;;;;;27.02;11.15;;;;;;;-11.51;100.00;98605.91;4308706;33;20413;-74
2021/12/26 03:16:46;;;;;;;41.95;13.68;;;;;;;-11.80;100.00;98564.03;4307195;33;20041;-72
2021/12/26 03:19:13;;;;;;;21.73;11.80;;;;;;;-11.45;100.00;98616.78;4310679;33;20029;-73
2021/12/26 03:21:40;;;;;;;40.47;14.93;;;;;;;-11.90;100.00;98565.69;4310386;33;20082;-73
2021/12/26 03:24:07;;;;;;;51.88;13.98;;;;;;;-11.65;100.00;98615.75;4310812;33;20041;-72
2021/12/26 03:26:34;;;;;;;20.27;10.10;;;;;;;-11.75;100.00;98611.25;4306063;33;20078;-72
2021/12/26 03:29:01;;;;;;;29.12;10.25;;;;;;;-11.84;100.00;98601.56;4310807;33;20363;-73
2021/12/26 03:31:27;;;;;;;38.67;10.40;;;;;;;-11.78;100.00;98614.09;4309724;33;20029;-74
2021/12/26 03:34:02;;;;;;;28.27;10.88;;;;;;;-12.00;100.00;98559.59;4310073;33;20164;-73
2021/12/26 03:36:29;;;;;;;36.92;12.15;;;;;;;-11.83;100.00;98587.66;4307791;33;20041;-72
2021/12/26 03:38:56;;;;;;;24.45;10.85;;;;;;;-11.63;100.00;98621.63;4309937;33;20584;-72
2021/12/26 03:41:23;;;;;;;29.85;9.13;;;;;;;-11.53;100.00;98620.00;4310672;33;20036;-72
2021/12/26 03:43:52;;;;;;;29.00;10.07;;;;;;;-11.58;100.00;98611.72;4298091;33;20028;-72
2021/12/26 03:46:18;;;;;;;15.27;7.95;;;;;;;-11.67;100.00;98587.28;4310168;33;20424;-75
2021/12/26 03:48:45;;;;;;;35.67;9.93;;;;;;;-11.54;100.00;98566.38;4310008;33;20427;-72
2021/12/26 03:51:12;;;;;;;20.95;8.65;;;;;;;-11.45;100.00;98572.59;4310972;33;20062;-72
2021/12/26 03:53:39;;;;;;;33.72;8.48;;;;;;;-11.10;100.00;98616.59;4310564;33;20062;-72
2021/12/26 03:56:05;;;;;;;24.95;9.15;;;;;;;-11.03;100.00;98617.75;4309381;33;20478;-73
2021/12/26 03:58:33;;;;;;;25.92;9.57;;;;;;;-11.38;100.00;98572.00;4308886;33;20041;-74
2021/12/26 04:00:59;;;;;;;36.15;11.73;;;;;;;-11.02;100.00;98624.62;4311003;33;20078;-72
2021/12/26 04:03:26;;;;;;;31.77;11.52;;;;;;;-11.07;100.00;98605.97;4308985;33;20145;-72
2021/12/26 04:05:54;;;;;;;27.73;10.70;;;;;;;-11.27;100.00;98565.12;4310863;33;20306;-72
2021/12/26 04:08:20;;;;;;;28.20;11.12;;;;;;;-11.04;100.00;98610.06;4306604;33;20100;-73
2021/12/26 04:10:47;;;;;;;28.08;11.30;;;;;;;-11.05;100.00;98619.66;4304026;33;20033;-72
2021/12/26 04:13:15;;;;;;;34.25;10.57;;;;;;;-11.05;100.00;98634.44;4310115;33;21020;-72
2021/12/26 04:15:41;;;;;;;29.90;9.23;;;;;;;-11.00;100.00;98638.31;4312766;33;20466;-72
2021/12/26 04:18:09;;;;;;;21.33;9.30;;;;;;;-10.92;100.00;98629.09;4315022;33;20032;-72
2021/12/26 04:20:35;;;;;;;27.65;9.45;;;;;;;-10.91;100.00;98630.72;4313372;33;20223;-74
2021/12/26 04:23:02;;;;;;;40.35;12.15;;;;;;;-11.26;100.00;98569.38;4311446;33;20103;-72
2021/12/26 04:25:30;;;;;;;52.65;9.98;;;;;;;-10.88;100.00;98635.69;4300214;33;20082;-73
2021/12/26 04:27:57;;;;;;;34.50;12.15;;;;;;;-11.28;100.00;98589.47;4311563;33;20054;-73
2021/12/26 04:30:24;;;;;;;20.65;10.35;;;;;;;-11.14;100.00;98620.38;4313192;33;20036;-74
2021/12/26 04:32:52;;;;;;;22.77;10.43;;;;;;;-11.09;100.00;98643.44;4309190;33;20094;-73
2021/12/26 04:35:19;;;;;;;24.63;8.70;;;;;;;-11.08;100.00;98640.72;4312744;33;20037;-73
2021/12/26 04:37:47;;;;;;;25.98;9.85;;;;;;;-11.16;100.00;98637.88;4311916;33;20058;-73
2021/12/26 04:40:15;;;;;;;36.65;10.05;;;;;;;-11.09;100.00;98633.84;4313087;33;20387;-74
2021/12/26 04:42:46;;;;;;;25.33;9.10;;;;;;;-11.08;100.00;98624.28;4311314;33;20075;-74
2021/12/26 04:45:14;;;;;;;25.95;11.35;;;;;;;-11.10;100.00;98632.22;4313040;33;20086;-72
2021/12/26 04:47:45;;;;;;;27.75;9.68;;;;;;;-11.40;100.00;98576.50;4310074;33;20124;-73
2021/12/26 04:50:15;;;;;;;24.77;9.95;;;;;;;-11.43;100.00;98581.13;4313519;33;20036;-74
2021/12/26 04:52:45;;;;;;;19.60;8.85;;;;;;;-11.09;100.00;98639.03;4299761;33;20058;-75
2021/12/26 04:55:19;;;;;;;27.67;8.38;;;;;;;-11.24;100.00;98628.09;4319147;33;20434;-73
2021/12/26 04:57:46;;;;;;;27.73;10.43;;;;;;;-11.14;100.00;98646.38;4299855;33;20051;-73
2021/12/26 05:00:16;;;;;;;45.55;12.07;;;;;;;-11.24;100.00;98632.47;4313139;33;20033;-73
2021/12/26 05:02:44;;;;;;;28.85;8.85;;;;;;;-11.28;100.00;98628.44;4310335;33;20441;-73
2021/12/26 05:05:12;;;;;;;32.63;11.98;;;;;;;-11.24;100.00;98645.47;4297032;33;20985;-73
2021/12/26 05:07:40;;;;;;;18.15;10.05;;;;;;;-11.26;100.00;98629.16;4297917;33;20160;-73
2021/12/26 05:10:09;;;;;;;31.92;10.93;;;;;;;-11.47;100.00;98592.69;4283853;33;20033;-73
2021/12/26 05:12:36;;;;;;;32.80;10.32;;;;;;;-12.13;100.00;98485.25;4295364;33;20084;-75
2021/12/26 05:15:04;;;;;;;34.03;11.90;;;;;;;-11.26;100.00;98634.34;4284001;33;20083;-73
2021/12/26 05:17:32;;;;;;;31.67;11.93;;;;;;;-11.22;100.00;98622.78;4297571;33;20041;-73
2021/12/26 05:19:58;;;;;;;37.83;11.65;;;;;;;-11.16;100.00;98622.28;4284076;33;20047;-73
2021/12/26 05:22:25;;;;;;;36.63;12.37;;;;;;;-11.11;100.00;98609.75;4296675;33;20045;-76
2021/12/26 05:24:52;;;;;;;26.67;12.20;;;;;;;-11.11;100.00;98614.94;4296888;33;20073;-73
2021/12/26 05:30:37;;;;;;;34.80;13.07;;;;;;;-11.06;100.00;98627.59;4309207;33;20802;-74
2021/12/26 05:33:06;;;;;;;36.28;12.93;;;;;;;-11.21;100.00;98624.44;4311805;33;20058;-74
2021/12/26 05:35:33;;;;;;;32.47;11.73;;;;;;;-11.41;100.00;98576.63;4312256;33;20118;-74
2021/12/26 05:38:00;;;;;;;48.92;12.63;;;;;;;-11.14;100.00;98630.78;4308658;33;20036;-75
2021/12/26 05:40:28;;;;;;;33.53;10.50;;;;;;;-11.08;100.00;98625.09;4312070;33;20067;-73
2021/12/26 05:42:54;;;;;;;61.17;14.70;;;;;;;-11.34;100.00;98583.00;4312270;33;20346;-73
2021/12/26 05:45:20;;;;;;;54.53;15.52;;;;;;;-11.07;100.00;98642.38;4311901;33;20421;-73
2021/12/26 05:47:48;;;;;;;50.67;16.27;;;;;;;-11.31;100.00;98629.53;4311713;33;20223;-74
2021/12/26 05:50:18;;;;;;;31.62;12.85;;;;;;;-11.30;100.00;98651.16;4311092;33;20040;-74
2021/12/26 05:52:46;;;;;;;35.20;12.30;;;;;;;-11.72;100.00;98589.41;4311597;33;20439;-73
2021/12/26 05:55:15;;;;;;;38.35;11.32;;;;;;;-11.67;100.00;98608.06;4299382;33;20033;-72
2021/12/26 05:57:42;;;;;;;20.80;11.65;;;;;;;-11.33;100.00;98653.06;4298050;33;20438;-72
2021/12/26 06:00:13;;;;;;;33.60;10.70;;;;;;;-11.30;100.00;98661.53;4310599;33;20037;-73
2021/12/26 06:02:42;;;;;;;37.78;11.18;;;;;;;-11.33;100.00;98660.84;4303681;33;20111;-73
2021/12/26 06:05:09;;;;;;;42.90;15.52;;;;;;;-11.42;100.00;98658.97;4310080;33;20055;-73
2021/12/26 06:07:44;;;;;;;31.12;11.18;;;;;;;-11.44;100.00;98660.00;4309388;33;20071;-75
2021/12/26 06:10:12;;;;;;;62.42;17.02;;;;;;;-11.47;100.00;98671.50;4311902;33;20138;-74
2021/12/26 06:12:39;;;;;;;52.90;11.63;;;;;;;-11.60;100.00;98665.56;4294349;33;20032;-73
2021/12/26 06:15:06;;;;;;;31.62;13.25;;;;;;;-11.98;100.00;98614.81;4309364;33;20045;-73
2021/12/26 06:17:34;;;;;;;38.20;11.77;;;;;;;-11.69;100.00;98667.13;4311882;33;20029;-73
2021/12/26 06:20:04;;;;;;;34.42;10.15;;;;;;;-11.74;100.00;98670.06;4308906;33;20021;-73
2021/12/26 06:22:32;;;;;;;43.58;11.75;;;;;;;-12.01;100.00;98620.25;4311103;33;20067;-71
2021/12/26 06:25:02;;;;;;;21.08;9.32;;;;;;;-11.92;100.00;98666.28;4311696;33;20134;-72
2021/12/26 06:27:29;;;;;;;26.27;10.48;;;;;;;-11.88;100.00;98663.31;4310023;33;20029;-72
2021/12/26 06:30:07;;;;;;;21.50;9.15;;;;;;;-12.15;100.00;98629.91;4300472;33;20227;-71
2021/12/26 06:32:37;;;;;;;27.62;11.23;;;;;;;-12.09;100.00;98632.03;4295506;33;20395;-72
2021/12/26 06:35:05;;;;;;;21.08;9.57;;;;;;;-11.83;100.00;98683.75;4310307;33;20453;-72
2021/12/26 06:37:38;;;;;;;22.20;10.93;;;;;;;-11.78;100.00;98679.00;4306617;33;20033;-73
2021/12/26 06:40:35;;;;;;;27.52;10.45;;;;;;;-12.12;100.00;98627.09;4310651;33;20037;-70
2021/12/26 06:43:08;;;;;;;;;;;;;;;-12.05;100.00;98635.22;4305908;33;20049;-72
2021/12/26 06:45:47;;;;;;;18.30;8.30;;;;;;;-11.63;100.00;98686.59;4311774;33;19941;-70
2021/12/26 06:48:16;;;;;;;29.27;9.07;;;;;;;-12.07;100.00;98643.13;4310846;33;20059;-70
2021/12/26 06:50:44;;;;;;;21.50;8.80;;;;;;;-11.69;100.00;98693.09;4310404;33;20029;-73
2021/12/26 06:53:12;;;;;;;25.37;10.75;;;;;;;-12.02;100.00;98644.56;4310531;33;20062;-71
2021/12/26 06:55:39;;;;;;;21.50;9.80;;;;;;;-12.07;100.00;98653.50;4297945;33;20036;-71
2021/12/26 06:58:05;;;;;;;24.77;8.48;;;;;;;-11.89;100.00;98692.00;4309366;33;20131;-71
2021/12/26 07:00:34;;;;;;;25.35;10.38;;;;;;;-11.80;100.00;98701.69;4309652;33;20080;-71
2021/12/26 07:03:02;;;;;;;18.62;9.55;;;;;;;-11.78;100.00;98710.19;4296920;33;20025;-71
2021/12/26 07:05:30;;;;;;;21.08;8.90;;;;;;;-11.77;100.00;98705.84;4310875;33;20062;-71
2021/12/26 07:07:58;;;;;;;22.58;9.77;;;;;;;-11.80;100.00;98706.88;4309856;33;20078;-71
2021/12/26 07:10:25;;;;;;;17.67;8.32;;;;;;;-11.74;100.00;98710.78;4309759;33;20442;-77
2021/12/26 07:12:52;;;;;;;17.70;8.60;;;;;;;-11.90;100.00;98690.31;4310010;33;20063;-72
2021/12/26 07:15:19;;;;;;;28.73;9.98;;;;;;;-11.88;100.00;98711.84;4296782;33;20070;-71
2021/12/26 07:17:46;;;;;;;9.25;4.30;;;;;;;-11.77;100.00;98709.25;4310644;33;20029;-71
2021/12/26 07:20:16;;;;;;;28.50;7.65;;;;;;;-11.76;100.00;98723.88;4308149;33;20064;-72
2021/12/26 07:22:48;;;;;;;29.73;12.07;;;;;;;-11.70;100.00;98720.81;4310060;33;20048;-72
2021/12/26 07:25:15;;;;;;;14.38;7.12;;;;;;;-11.76;100.00;98710.88;4325345;33;20057;-72
2021/12/26 07:27:41;;;;;;;16.65;8.57;;;;;;;-11.71;100.00;98721.78;4324060;33;20426;-71
2021/12/26 07:30:12;;;;;;;29.25;9.77;;;;;;;-11.77;100.00;98722.25;4323464;33;20021;-72
2021/12/26 07:32:39;;;;;;;18.98;9.52;;;;;;;-11.62;100.00;98724.62;4306050;33;20036;-72
2021/12/26 07:35:06;;;;;;;16.85;7.95;;;;;;;-11.58;100.00;98726.03;4310468;33;20057;-71
2021/12/26 07:37:34;;;;;;;30.30;11.05;;;;;;;-11.51;100.00;98732.41;4310156;33;20116;-73
2021/12/26 07:40:01;;;;;;;17.62;8.65;;;;;;;-11.44;100.00;98733.59;4298104;33;20075;-73
2021/12/26 07:42:28;;;;;;;36.10;9.02;;;;;;;-11.39;100.00;98731.50;4299070;33;20366;-75
2021/12/26 07:44:58;;;;;;;24.48;8.63;;;;;;;-11.35;100.00;98740.69;4302112;33;20066;-73
2021/12/26 07:47:25;;;;;;;38.15;12.68;;;;;;;-11.42;100.00;98726.53;4303407;33;20054;-72
2021/12/26 07:49:53;;;;;;;28.17;11.05;;;;;;;-11.26;100.00;98748.72;4298274;33;20059;-72
2021/12/26 07:52:39;;;;;;;26.12;10.43;;;;;;;-11.62;100.00;98698.63;4295044;33;20037;-72
2021/12/26 07:55:20;;;;;;;36.13;13.30;;;;;;;-11.59;100.00;98703.59;4302510;33;20055;-71
2021/12/26 07:58:03;;;;;;;10.85;7.22;;;;;;;-11.25;100.00;98747.78;4303799;33;20447;-72
2021/12/26 08:00:44;;;;;;;27.52;10.05;;;;;;;-11.24;100.00;98741.66;4312749;33;20076;-73
2021/12/26 08:03:12;;;;;;;30.17;10.57;;;;;;;-11.18;100.00;98749.81;4299094;33;20080;-71
2021/12/26 08:05:45;;;;;;;33.90;12.10;;;;;;;-11.12;100.00;98751.09;4311106;33;20040;-73
2021/12/26 08:08:12;;;;;;;27.45;10.00;;;;;;;-11.06;100.00;98758.41;4311975;33;20742;-71
2021/12/26 08:10:39;;;;;;;32.13;13.07;;;;;;;-11.00;100.00;98752.75;4301386;33;20032;-72
2021/12/26 08:13:05;;;;;;;28.15;10.95;;;;;;;-10.88;100.00;98750.13;4311796;33;20041;-72
2021/12/26 08:15:32;;;;;;;27.13;10.27;;;;;;;-11.09;100.00;98706.66;4312044;33;20100;-72
2021/12/26 08:17:59;;;;;;;27.02;11.05;;;;;;;-10.73;100.00;98738.53;4309127;33;20037;-72
2021/12/26 08:20:25;;;;;;;33.80;11.98;;;;;;;-10.72;100.00;98734.97;4308127;33;20118;-72
2021/12/26 08:22:52;;;;;;;29.27;11.15;;;;;;;-10.66;100.00;98739.66;4308073;33;20121;-72
2021/12/26 08:25:19;;;;;;;29.37;12.88;;;;;;;-10.88;100.00;98693.75;4310903;33;20456;-73
2021/12/26 08:27:45;;;;;;;27.52;11.50;;;;;;;-10.49;100.00;98743.53;4309902;33;20032;-73
2021/12/26 08:30:12;;;;;;;30.95;11.75;;;;;;;-10.53;100.00;98736.09;4309754;33;20074;-72
2021/12/26 08:32:41;;;;;;;27.98;10.70;;;;;;;-10.49;100.00;98721.91;4312271;33;20079;-72
2021/12/26 08:35:08;;;;;;;34.00;11.75;;;;;;;-10.47;100.00;98722.59;4311882;33;20040;-72
2021/12/26 08:37:37;;;;;;;22.90;10.07;;;;;;;-10.28;100.00;98746.16;4311685;33;20040;-72
2021/12/26 08:40:05;;;;;;;40.15;13.98;;;;;;;-10.18;100.00;98737.59;4311646;33;20059;-73
2021/12/26 08:42:31;;;;;;;43.72;12.85;;;;;;;-10.31;100.00;98738.59;4294764;33;20053;-71
2021/12/26 08:44:59;;;;;;;37.25;11.95;;;;;;;-10.51;100.00;98701.22;4313456;33;20124;-71
2021/12/26 08:47:26;;;;;;;32.05;11.93;;;;;;;-10.19;100.00;98751.56;4299817;33;20039;-71
2021/12/26 08:49:53;;;;;;;32.30;10.20;;;;;;;-10.26;100.00;98757.31;4309935;33;20088;-73
2021/12/26 08:52:20;;;;;;;42.30;12.15;;;;;;;-10.18;100.00;98758.44;4312129;33;20061;-71
2021/12/26 08:54:46;;;;;;;34.13;14.10;;;;;;;-10.11;100.00;98759.63;4308833;33;20049;-72
2021/12/26 08:57:15;;;;;;;31.62;11.98;;;;;;;-10.05;100.00;98753.88;4305452;33;20078;-71
2021/12/26 08:59:43;;;;;;;27.15;11.23;;;;;;;-10.10;100.00;98761.25;4298719;33;20048;-73
2021/12/26 09:02:12;;;;;;;36.65;13.68;;;;;;;-10.06;100.00;98762.66;4310669;33;20048;-71
2021/12/26 09:04:41;;;;;;;31.45;11.18;;;;;;;-9.93;100.00;98763.31;4306412;33;20045;-71
2021/12/26 09:07:10;;;;;;;33.28;11.57;;;;;;;-10.04;100.00;98771.16;4303234;33;20067;-73
2021/12/26 09:09:36;;;;;;;43.55;15.45;;;;;;;-9.89;100.00;98764.72;4299281;33;20033;-74
2021/12/26 09:12:04;;;;;;;25.70;11.60;;;;;;;-9.82;100.00;98765.03;4303724;33;20797;-71
2021/12/26 09:14:32;;;;;;;31.77;12.75;;;;;;;-9.80;100.00;98762.28;4297878;33;20178;-73
2021/12/26 09:16:59;;;;;;;35.28;14.15;;;;;;;-9.79;100.00;98753.53;4293686;33;20021;-75
2021/12/26 09:19:28;;;;;;;32.63;12.48;;;;;;;-9.96;100.00;98714.06;4309023;33;20021;-75
2021/12/26 09:22:00;;;;;;;30.60;11.90;;;;;;;-9.73;100.00;98758.22;4308792;33;20066;-77
2021/12/26 09:24:34;;;;;;;27.15;9.73;;;;;;;-9.98;100.00;98718.56;4298212;33;20382;-76
2021/12/26 09:27:01;;;;;;;33.67;13.88;;;;;;;-9.72;100.00;98770.31;4312045;33;20070;-77
2021/12/26 09:29:29;;;;;;;51.13;15.07;;;;;;;-10.13;100.00;98714.63;4308143;33;20029;-74
2021/12/26 09:31:56;;;;;;;45.28;11.48;;;;;;;-9.69;100.00;98773.47;4307597;33;20412;-78
2021/12/26 09:34:24;;;;;;;44.35;16.70;;;;;;;-9.79;100.00;98769.19;4298459;33;20052;-79
2021/12/26 09:36:51;;;;;;;51.45;18.35;;;;;;;-9.64;100.00;98778.31;4297657;33;20037;-76
2021/12/26 09:39:17;;;;;;;53.97;16.67;;;;;;;-9.54;100.00;98778.38;4310860;33;20101;-76
2021/12/26 09:41:44;;;;;;;58.45;17.40;;;;;;;-9.47;100.00;98773.50;4298806;33;20055;-79
2021/12/26 09:44:18;;;;;;;58.33;21.10;;;;;;;-9.57;100.00;98779.47;4307974;33;20062;-78
2021/12/26 09:46:45;;;;;;;50.12;17.87;;;;;;;-9.43;100.00;98787.91;4308723;33;20051;-77
2021/12/26 09:49:13;;;;;;;51.10;18.35;;;;;;;-9.42;100.00;98789.56;4300227;33;20090;-76
2021/12/26 09:51:40;;;;;;;53.42;19.65;;;;;;;-9.46;100.00;98780.34;4309821;33;20453;-75
2021/12/26 09:54:08;;;;;;;50.33;16.87;;;;;;;-9.67;100.00;98736.88;4307680;33;20076;-77
2021/12/26 09:56:35;;;;;;;27.67;14.10;;;;;;;-9.27;100.00;98790.06;4308497;33;20075;-76
2021/12/26 09:59:05;;;;;;;42.97;17.65;;;;;;;-9.34;100.00;98780.13;4311015;33;20032;-76
2021/12/26 10:01:31;;;;;;;54.75;19.27;;;;;;;-9.41;100.00;98741.66;4295927;33;20021;-76
2021/12/26 10:04:24;;;;;;;39.10;14.50;;;;;;;-9.18;100.00;98779.66;4297183;33;20055;-78
2021/12/26 10:07:00;;;;;;;43.80;17.85;;;;;;;-9.06;100.00;98783.03;4295866;33;20025;-76
2021/12/26 10:09:28;;;;;;;41.45;15.52;;;;;;;-8.91;100.00;98786.09;4310015;33;20053;-80
2021/12/26 10:12:01;;;;;;;42.45;13.13;;;;;;;-8.85;100.00;98779.56;4296144;33;20060;-79
2021/12/26 10:14:33;;;;;;;43.70;15.75;;;;;;;-8.93;100.00;98777.59;4311129;33;20045;-76
2021/12/26 10:17:03;;;;;;;45.45;15.02;;;;;;;-9.02;100.00;98783.59;4310581;33;20078;-76
2021/12/26 10:19:34;;;;;;;35.00;14.73;;;;;;;-8.86;100.00;98796.97;4307151;33;20045;-76
2021/12/26 10:22:03;;;;;;;32.17;14.30;;;;;;;-8.83;100.00;98794.09;4309991;33;20119;-77
2021/12/26 10:24:36;;;;;;;57.88;15.93;;;;;;;-8.76;100.00;98791.78;4310905;33;20040;-75
2021/12/26 10:27:10;;;;;;;46.70;14.18;;;;;;;-8.57;100.00;98788.41;4311096;33;20426;-74
2021/12/26 10:29:51;;;;;;;30.05;13.82;;;;;;;-8.86;100.00;98763.03;4309629;33;20045;-76
2021/12/26 10:32:33;;;;;;;35.83;14.77;;;;;;;-8.56;100.00;98790.06;4310482;33;20049;-76
2021/12/26 10:35:12;;;;;;;29.12;11.23;;;;;;;-8.65;100.00;98775.19;4309452;33;20375;-75
2021/12/26 10:37:45;;;;;;;35.88;14.30;;;;;;;-8.72;100.00;98745.38;4296797;33;20115;-77
2021/12/26 10:40:26;;;;;;;51.50;16.12;;;;;;;-8.40;100.00;98782.50;4298730;33;20208;-76
2021/12/26 10:42:57;;;;;;;52.30;17.10;;;;;;;-8.30;100.00;98789.53;4294825;33;20078;-76
2021/12/26 10:45:30;;;;;;;67.55;17.27;;;;;;;-8.51;100.00;98743.50;4310175;33;20044;-77
2021/12/26 10:48:00;;;;;;;43.92;17.23;;;;;;;-8.12;100.00;98793.16;4303808;33;20033;-76
2021/12/26 10:50:29;;;;;;;54.05;16.40;;;;;;;-8.44;100.00;98739.38;4308361;33;20062;-77
2021/12/26 10:53:01;;;;;;;38.08;12.93;;;;;;;-8.00;100.00;98775.53;4311065;33;20092;-76
2021/12/26 10:55:30;;;;;;;40.53;16.00;;;;;;;-8.00;100.00;98775.53;4301688;33;20469;-75
2021/12/26 10:57:59;;;;;;;42.03;15.82;;;;;;;-7.95;100.00;98775.13;4305384;33;20033;-75
2021/12/26 11:00:36;;;;;;;39.47;15.90;;;;;;;-7.90;100.00;98780.75;4308596;33;20024;-75
2021/12/26 11:03:07;;;;;;;43.55;13.80;;;;;;;-8.03;100.00;98729.59;4311655;33;20106;-76
2021/12/26 11:05:40;;;;;;;46.65;14.45;;;;;;;-7.61;100.00;98770.31;4295784;33;20098;-74
2021/12/26 11:08:13;;;;;;;26.87;12.90;;;;;;;-7.99;100.00;98692.72;4302467;33;20124;-75
2021/12/26 11:10:41;;;;;;;38.05;13.48;;;;;;;-7.34;100.00;98777.41;4304851;33;20412;-76
2021/12/26 11:13:26;;;;;;;39.70;14.50;;;;;;;-7.49;100.00;98773.56;4306343;33;20495;-75
2021/12/26 11:15:57;;;;;;;40.70;13.60;;;;;;;-6.90;100.00;98771.59;4303985;33;20071;-74
2021/12/26 11:18:26;;;;;;;31.37;13.00;;;;;;;-6.49;100.00;98763.38;4303203;33;20049;-74
2021/12/26 11:20:56;;;;;;;34.78;14.15;;;;;;;-6.27;100.00;98764.78;4291766;33;20182;-74
2021/12/26 11:23:33;;;;;;;57.42;15.63;;;;;;;-6.25;100.00;98706.00;4304254;33;20088;-74